sensor_id;sensor_type;location;lat;lon;timestamp;pressure;altitude;pressure_sealevel;temperature;humidity
58761;BME280;44529;47.464;19.014;2022-10-16T00:00:47;100716.44;;;14.26;82.26
58761;BME280;44529;47.464;19.014;2022-10-16T00:03:49;100728.91;;;14.27;80.64
58761;BME280;44529;47.464;19.014;2022-10-16T00:06:52;100711.16;;;14.30;80.39
58761;BME280;44529;47.464;19.014;2022-10-16T00:09:54;100713.69;;;14.26;80.68
58761;BME280;44529;47.464;19.014;2022-10-16T00:12:56;100712.13;;;14.25;81.76
58761;BME280;44529;47.464;19.014;2022-10-16T00:15:59;100707.97;;;14.19;82.32
58761;BME280;44529;47.464;19.014;2022-10-16T00:19:02;100712.28;;;14.20;82.66
58761;BME280;44529;47.464;19.014;2022-10-16T00:22:05;100708.94;;;14.15;83.20
58761;BME280;44529;47.464;19.014;2022-10-16T00:25:07;100713.25;;;14.16;82.24
58761;BME280;44529;47.464;19.014;2022-10-16T00:28:10;100725.59;;;14.13;81.67
58761;BME280;44529;47.464;19.014;2022-10-16T00:31:12;100725.91;;;14.12;81.95
58761;BME280;44529;47.464;19.014;2022-10-16T00:34:14;100725.09;;;14.02;81.48
58761;BME280;44529;47.464;19.014;2022-10-16T00:37:16;100731.84;;;14.05;82.75
58761;BME280;44529;47.464;19.014;2022-10-16T00:40:19;100732.81;;;14.00;80.69
58761;BME280;44529;47.464;19.014;2022-10-16T00:43:41;100734.25;;;13.89;81.31
58761;BME280;44529;47.464;19.014;2022-10-16T00:46:44;100738.25;;;13.92;81.77
58761;BME280;44529;47.464;19.014;2022-10-16T00:49:47;100734.88;;;13.95;79.83
58761;BME280;44529;47.464;19.014;2022-10-16T00:52:51;100739.84;;;13.93;80.36
58761;BME280;44529;47.464;19.014;2022-10-16T00:55:53;100728.47;;;13.91;79.93
58761;BME280;44529;47.464;19.014;2022-10-16T00:58:58;100737.91;;;13.85;80.37
58761;BME280;44529;47.464;19.014;2022-10-16T01:02:02;100741.63;;;13.80;80.87
58761;BME280;44529;47.464;19.014;2022-10-16T01:05:05;100745.94;;;13.72;81.16
58761;BME280;44529;47.464;19.014;2022-10-16T01:08:17;100751.03;;;13.65;82.78
58761;BME280;44529;47.464;19.014;2022-10-16T01:11:38;100760.78;;;13.58;82.73
58761;BME280;44529;47.464;19.014;2022-10-16T01:14:53;100749.78;;;13.54;80.96
58761;BME280;44529;47.464;19.014;2022-10-16T01:18:07;100758.53;;;13.51;81.69
58761;BME280;44529;47.464;19.014;2022-10-16T01:21:22;100749.44;;;13.47;80.59
58761;BME280;44529;47.464;19.014;2022-10-16T01:24:41;100756.94;;;13.41;80.62
58761;BME280;44529;47.464;19.014;2022-10-16T01:27:46;100766.69;;;13.34;80.81
58761;BME280;44529;47.464;19.014;2022-10-16T01:30:52;100763.63;;;13.26;80.82
58761;BME280;44529;47.464;19.014;2022-10-16T01:34:12;100778.47;;;13.20;81.11
58761;BME280;44529;47.464;19.014;2022-10-16T01:37:22;100774.75;;;13.16;81.00
58761;BME280;44529;47.464;19.014;2022-10-16T01:40:27;100768.81;;;13.06;82.18
58761;BME280;44529;47.464;19.014;2022-10-16T01:43:33;100768.16;;;13.00;81.76
58761;BME280;44529;47.464;19.014;2022-10-16T01:46:39;100765.09;;;12.93;81.79
58761;BME280;44529;47.464;19.014;2022-10-16T01:49:43;100775.25;;;12.79;83.96
58761;BME280;44529;47.464;19.014;2022-10-16T01:52:49;100773.19;;;12.76;83.14
58761;BME280;44529;47.464;19.014;2022-10-16T01:55:55;100784.66;;;12.72;84.33
58761;BME280;44529;47.464;19.014;2022-10-16T01:59:04;100782.87;;;12.68;85.20
58761;BME280;44529;47.464;19.014;2022-10-16T02:02:09;100784.28;;;12.57;84.74
58761;BME280;44529;47.464;19.014;2022-10-16T02:08:18;100790.78;;;12.56;84.31
58761;BME280;44529;47.464;19.014;2022-10-16T02:11:21;100798.56;;;12.48;85.54
58761;BME280;44529;47.464;19.014;2022-10-16T02:14:23;100794.53;;;12.37;86.07
58761;BME280;44529;47.464;19.014;2022-10-16T02:17:28;100797.59;;;12.44;84.60
58761;BME280;44529;47.464;19.014;2022-10-16T02:20:33;100794.09;;;12.44;84.40
58761;BME280;44529;47.464;19.014;2022-10-16T02:26:57;100784.69;;;12.19;87.24
58761;BME280;44529;47.464;19.014;2022-10-16T02:30:10;100790.66;;;12.07;88.07
58761;BME280;44529;47.464;19.014;2022-10-16T02:33:15;100794.72;;;12.18;87.05
58761;BME280;44529;47.464;19.014;2022-10-16T02:36:19;100794.22;;;12.16;86.15
58761;BME280;44529;47.464;19.014;2022-10-16T02:39:21;100805.19;;;12.11;86.71
58761;BME280;44529;47.464;19.014;2022-10-16T02:42:34;100799.94;;;11.92;88.50
58761;BME280;44529;47.464;19.014;2022-10-16T02:45:37;100802.66;;;11.92;88.57
58761;BME280;44529;47.464;19.014;2022-10-16T02:48:39;100802.66;;;11.92;87.91
58761;BME280;44529;47.464;19.014;2022-10-16T02:51:41;100797.72;;;11.95;87.52
58761;BME280;44529;47.464;19.014;2022-10-16T02:54:44;100804.38;;;11.88;87.48
58761;BME280;44529;47.464;19.014;2022-10-16T02:57:46;100812.12;;;11.81;89.35
58761;BME280;44529;47.464;19.014;2022-10-16T03:00:48;100813.31;;;11.75;88.66
58761;BME280;44529;47.464;19.014;2022-10-16T03:03:51;100816.50;;;11.77;88.33
58761;BME280;44529;47.464;19.014;2022-10-16T03:06:53;100815.22;;;11.75;88.68
58761;BME280;44529;47.464;19.014;2022-10-16T03:09:55;100809.44;;;11.68;87.92
58761;BME280;44529;47.464;19.014;2022-10-16T03:12:57;100811.44;;;11.62;88.18
58761;BME280;44529;47.464;19.014;2022-10-16T03:16:00;100816.06;;;11.61;88.00
58761;BME280;44529;47.464;19.014;2022-10-16T03:19:02;100820.37;;;11.62;88.75
58761;BME280;44529;47.464;19.014;2022-10-16T03:22:04;100821.16;;;11.63;88.86
58761;BME280;44529;47.464;19.014;2022-10-16T03:25:07;100820.88;;;11.51;90.36
58761;BME280;44529;47.464;19.014;2022-10-16T03:28:09;100821.78;;;11.46;89.16
58761;BME280;44529;47.464;19.014;2022-10-16T03:31:12;100832.22;;;11.39;89.66
58761;BME280;44529;47.464;19.014;2022-10-16T03:34:14;100828.53;;;11.35;89.16
58761;BME280;44529;47.464;19.014;2022-10-16T03:37:16;100839.25;;;11.40;88.69
58761;BME280;44529;47.464;19.014;2022-10-16T03:40:18;100839.53;;;11.38;89.41
58761;BME280;44529;47.464;19.014;2022-10-16T03:43:21;100837.25;;;11.32;90.17
58761;BME280;44529;47.464;19.014;2022-10-16T03:46:23;100847.59;;;11.30;89.59
58761;BME280;44529;47.464;19.014;2022-10-16T03:49:26;100848.38;;;11.30;89.64
58761;BME280;44529;47.464;19.014;2022-10-16T03:52:28;100849.78;;;11.28;88.90
58761;BME280;44529;47.464;19.014;2022-10-16T03:55:30;100855.50;;;11.26;89.08
58761;BME280;44529;47.464;19.014;2022-10-16T03:58:32;100847.78;;;11.20;89.01
58761;BME280;44529;47.464;19.014;2022-10-16T04:01:35;100850.59;;;11.15;89.34
58761;BME280;44529;47.464;19.014;2022-10-16T04:04:37;100852.19;;;11.16;89.82
58761;BME280;44529;47.464;19.014;2022-10-16T04:07:39;100861.41;;;11.15;90.36
58761;BME280;44529;47.464;19.014;2022-10-16T04:10:43;100861.22;;;11.11;90.58
58761;BME280;44529;47.464;19.014;2022-10-16T04:13:45;100861.38;;;11.01;92.09
58761;BME280;44529;47.464;19.014;2022-10-16T04:16:47;100864.81;;;11.06;91.64
58761;BME280;44529;47.464;19.014;2022-10-16T04:19:49;100865.41;;;11.03;90.50
58761;BME280;44529;47.464;19.014;2022-10-16T04:22:52;100860.31;;;11.02;90.67
58761;BME280;44529;47.464;19.014;2022-10-16T04:25:54;100869.91;;;10.94;90.75
58761;BME280;44529;47.464;19.014;2022-10-16T04:28:57;100865.09;;;10.91;91.32
58761;BME280;44529;47.464;19.014;2022-10-16T04:31:59;100859.19;;;10.89;91.42
58761;BME280;44529;47.464;19.014;2022-10-16T04:35:01;100861.38;;;10.87;91.79
58761;BME280;44529;47.464;19.014;2022-10-16T04:38:04;100858.16;;;10.85;91.68
58761;BME280;44529;47.464;19.014;2022-10-16T04:41:07;100865.75;;;10.69;93.23
58761;BME280;44529;47.464;19.014;2022-10-16T04:44:09;100865.47;;;10.71;92.07
58761;BME280;44529;47.464;19.014;2022-10-16T04:47:12;100864.13;;;10.68;91.88
58761;BME280;44529;47.464;19.014;2022-10-16T04:50:14;100870.87;;;10.71;91.72
58761;BME280;44529;47.464;19.014;2022-10-16T04:53:34;100872.06;;;10.65;91.76
58761;BME280;44529;47.464;19.014;2022-10-16T04:56:36;100878.63;;;10.58;91.58
58761;BME280;44529;47.464;19.014;2022-10-16T04:59:45;100884.63;;;10.55;91.42
58761;BME280;44529;47.464;19.014;2022-10-16T05:02:49;100889.94;;;10.61;91.75
58761;BME280;44529;47.464;19.014;2022-10-16T05:05:51;100887.31;;;10.55;92.53
58761;BME280;44529;47.464;19.014;2022-10-16T05:08:53;100885.38;;;10.42;94.27
58761;BME280;44529;47.464;19.014;2022-10-16T05:11:56;100888.88;;;10.43;93.95
58761;BME280;44529;47.464;19.014;2022-10-16T05:14:58;100888.06;;;10.42;93.42
58761;BME280;44529;47.464;19.014;2022-10-16T05:18:01;100893.28;;;10.39;93.80
58761;BME280;44529;47.464;19.014;2022-10-16T05:21:03;100893.59;;;10.37;93.96
58761;BME280;44529;47.464;19.014;2022-10-16T05:24:05;100899.13;;;10.27;95.71
58761;BME280;44529;47.464;19.014;2022-10-16T05:27:08;100899.06;;;10.32;94.07
58761;BME280;44529;47.464;19.014;2022-10-16T05:30:10;100903.31;;;10.38;93.70
58761;BME280;44529;47.464;19.014;2022-10-16T05:33:13;100908.41;;;10.40;93.31
58761;BME280;44529;47.464;19.014;2022-10-16T05:36:16;100907.97;;;10.33;94.76
58761;BME280;44529;47.464;19.014;2022-10-16T05:39:20;100909.06;;;10.32;94.30
58761;BME280;44529;47.464;19.014;2022-10-16T05:42:22;100920.59;;;10.18;95.16
58761;BME280;44529;47.464;19.014;2022-10-16T05:45:24;100913.56;;;10.17;96.03
58761;BME280;44529;47.464;19.014;2022-10-16T05:48:27;100920.25;;;10.25;94.70
58761;BME280;44529;47.464;19.014;2022-10-16T05:51:29;100918.19;;;10.36;94.48
58761;BME280;44529;47.464;19.014;2022-10-16T05:54:31;100921.63;;;10.41;93.57
58761;BME280;44529;47.464;19.014;2022-10-16T05:57:33;100923.75;;;10.44;93.49
58761;BME280;44529;47.464;19.014;2022-10-16T06:00:36;100924.84;;;10.43;93.55
58761;BME280;44529;47.464;19.014;2022-10-16T06:03:39;100927.25;;;10.45;93.67
58761;BME280;44529;47.464;19.014;2022-10-16T06:06:41;100927.25;;;10.45;93.67
58761;BME280;44529;47.464;19.014;2022-10-16T06:09:43;100938.00;;;10.50;93.64
58761;BME280;44529;47.464;19.014;2022-10-16T06:12:45;100937.91;;;10.55;93.92
58761;BME280;44529;47.464;19.014;2022-10-16T06:15:48;100950.06;;;10.57;94.90
58761;BME280;44529;47.464;19.014;2022-10-16T06:18:51;100952.69;;;10.63;93.66
58761;BME280;44529;47.464;19.014;2022-10-16T06:21:53;100954.19;;;10.69;93.29
58761;BME280;44529;47.464;19.014;2022-10-16T06:24:56;100948.69;;;10.74;92.67
58761;BME280;44529;47.464;19.014;2022-10-16T06:27:59;100949.50;;;10.74;92.82
58761;BME280;44529;47.464;19.014;2022-10-16T06:31:02;100962.16;;;10.79;92.16
58761;BME280;44529;47.464;19.014;2022-10-16T06:34:10;100975.38;;;10.80;92.54
58761;BME280;44529;47.464;19.014;2022-10-16T06:37:13;100971.78;;;10.85;93.03
58761;BME280;44529;47.464;19.014;2022-10-16T06:40:15;100985.16;;;10.95;91.03
58761;BME280;44529;47.464;19.014;2022-10-16T06:43:17;100988.88;;;10.99;90.45
58761;BME280;44529;47.464;19.014;2022-10-16T06:46:22;100997.72;;;11.05;89.26
58761;BME280;44529;47.464;19.014;2022-10-16T06:49:25;100988.19;;;11.07;89.45
58761;BME280;44529;47.464;19.014;2022-10-16T06:52:28;100984.41;;;11.08;89.31
58761;BME280;44529;47.464;19.014;2022-10-16T06:55:30;100993.75;;;11.16;87.93
58761;BME280;44529;47.464;19.014;2022-10-16T06:58:32;100998.06;;;11.17;88.50
58761;BME280;44529;47.464;19.014;2022-10-16T07:01:34;100998.94;;;11.12;89.51
58761;BME280;44529;47.464;19.014;2022-10-16T07:04:37;101009.09;;;11.21;89.90
58761;BME280;44529;47.464;19.014;2022-10-16T07:07:39;101014.41;;;11.26;89.11
58761;BME280;44529;47.464;19.014;2022-10-16T07:10:41;101019.25;;;11.29;89.22
58761;BME280;44529;47.464;19.014;2022-10-16T07:13:45;101015.66;;;11.33;87.59
58761;BME280;44529;47.464;19.014;2022-10-16T07:16:55;101015.06;;;11.36;87.97
58761;BME280;44529;47.464;19.014;2022-10-16T07:19:57;101018.47;;;11.42;85.74
58761;BME280;44529;47.464;19.014;2022-10-16T07:23:00;101028.31;;;11.52;86.28
58761;BME280;44529;47.464;19.014;2022-10-16T07:26:03;101023.13;;;11.55;83.10
58761;BME280;44529;47.464;19.014;2022-10-16T07:29:17;101032.94;;;11.65;83.68
58761;BME280;44529;47.464;19.014;2022-10-16T07:32:19;101041.59;;;11.67;84.92
58761;BME280;44529;47.464;19.014;2022-10-16T07:35:22;101048.53;;;11.73;82.60
58761;BME280;44529;47.464;19.014;2022-10-16T07:38:24;101038.62;;;11.82;84.87
58761;BME280;44529;47.464;19.014;2022-10-16T07:41:27;101036.78;;;11.78;85.11
58761;BME280;44529;47.464;19.014;2022-10-16T07:44:29;101051.38;;;11.82;84.92
58761;BME280;44529;47.464;19.014;2022-10-16T07:47:32;101054.97;;;11.91;84.48
58761;BME280;44529;47.464;19.014;2022-10-16T07:50:34;101039.25;;;11.93;85.19
58761;BME280;44529;47.464;19.014;2022-10-16T07:53:36;101035.72;;;11.92;86.52
58761;BME280;44529;47.464;19.014;2022-10-16T07:56:38;101050.19;;;12.02;85.44
58761;BME280;44529;47.464;19.014;2022-10-16T07:59:45;101056.31;;;12.07;85.08
58761;BME280;44529;47.464;19.014;2022-10-16T08:02:47;101059.63;;;12.18;84.40
58761;BME280;44529;47.464;19.014;2022-10-16T08:05:50;101067.75;;;12.32;80.05
58761;BME280;44529;47.464;19.014;2022-10-16T08:08:52;101069.53;;;12.36;85.25
58761;BME280;44529;47.464;19.014;2022-10-16T08:11:55;101065.31;;;12.44;83.73
58761;BME280;44529;47.464;19.014;2022-10-16T08:15:03;101065.38;;;12.66;83.32
58761;BME280;44529;47.464;19.014;2022-10-16T08:18:05;101061.97;;;12.97;82.21
58761;BME280;44529;47.464;19.014;2022-10-16T08:21:13;101075.16;;;13.26;80.18
58761;BME280;44529;47.464;19.014;2022-10-16T08:24:22;101072.75;;;13.47;79.92
58761;BME280;44529;47.464;19.014;2022-10-16T08:27:24;101079.12;;;13.73;79.15
58761;BME280;44529;47.464;19.014;2022-10-16T08:30:27;101095.06;;;13.97;77.47
58761;BME280;44529;47.464;19.014;2022-10-16T08:33:29;101098.37;;;14.25;75.97
58761;BME280;44529;47.464;19.014;2022-10-16T08:36:31;101096.34;;;14.40;75.40
58761;BME280;44529;47.464;19.014;2022-10-16T08:39:34;101098.69;;;14.81;73.71
58761;BME280;44529;47.464;19.014;2022-10-16T08:43:11;101104.66;;;15.09;71.49
58761;BME280;44529;47.464;19.014;2022-10-16T08:46:39;101097.72;;;15.55;69.57
58761;BME280;44529;47.464;19.014;2022-10-16T08:49:57;101100.47;;;16.02;67.82
58761;BME280;44529;47.464;19.014;2022-10-16T08:53:00;101097.00;;;16.31;65.42
58761;BME280;44529;47.464;19.014;2022-10-16T08:56:02;101098.25;;;16.63;65.00
58761;BME280;44529;47.464;19.014;2022-10-16T08:59:10;101100.22;;;16.83;64.12
58761;BME280;44529;47.464;19.014;2022-10-16T09:02:34;101094.41;;;17.05;62.78
58761;BME280;44529;47.464;19.014;2022-10-16T09:05:52;101101.34;;;17.24;62.27
58761;BME280;44529;47.464;19.014;2022-10-16T09:09:16;101108.19;;;17.30;62.14
58761;BME280;44529;47.464;19.014;2022-10-16T09:12:39;101110.09;;;17.50;61.76
58761;BME280;44529;47.464;19.014;2022-10-16T09:15:55;101111.97;;;17.38;61.43
58761;BME280;44529;47.464;19.014;2022-10-16T09:19:18;101115.31;;;17.43;60.57
58761;BME280;44529;47.464;19.014;2022-10-16T09:22:27;101110.28;;;17.12;61.55
58761;BME280;44529;47.464;19.014;2022-10-16T09:25:31;101106.28;;;17.10;60.88
58761;BME280;44529;47.464;19.014;2022-10-16T09:28:34;101117.22;;;17.10;62.88
58761;BME280;44529;47.464;19.014;2022-10-16T09:31:36;101103.97;;;17.20;62.48
58761;BME280;44529;47.464;19.014;2022-10-16T09:34:43;101109.28;;;17.17;61.59
58761;BME280;44529;47.464;19.014;2022-10-16T09:37:50;101104.00;;;17.12;62.79
58761;BME280;44529;47.464;19.014;2022-10-16T09:40:57;101108.34;;;17.13;63.07
58761;BME280;44529;47.464;19.014;2022-10-16T09:44:16;101113.75;;;17.00;62.43
58761;BME280;44529;47.464;19.014;2022-10-16T09:47:25;101112.94;;;17.00;62.17
58761;BME280;44529;47.464;19.014;2022-10-16T09:50:29;101103.91;;;17.08;63.43
58761;BME280;44529;47.464;19.014;2022-10-16T09:53:42;101110.28;;;17.12;62.39
58761;BME280;44529;47.464;19.014;2022-10-16T09:56:45;101113.59;;;17.18;62.52
58761;BME280;44529;47.464;19.014;2022-10-16T10:02:54;101123.84;;;17.42;61.61
58761;BME280;44529;47.464;19.014;2022-10-16T10:06:13;101123.06;;;17.41;61.04
58761;BME280;44529;47.464;19.014;2022-10-16T10:09:20;101130.31;;;17.37;62.24
58761;BME280;44529;47.464;19.014;2022-10-16T10:12:25;101121.53;;;17.31;61.24
58761;BME280;44529;47.464;19.014;2022-10-16T10:15:33;101114.66;;;17.46;61.14
58761;BME280;44529;47.464;19.014;2022-10-16T10:18:37;101114.41;;;17.51;60.71
58761;BME280;44529;47.464;19.014;2022-10-16T10:21:39;101108.50;;;17.49;61.80
58761;BME280;44529;47.464;19.014;2022-10-16T10:24:41;101100.53;;;17.56;61.65
58761;BME280;44529;47.464;19.014;2022-10-16T10:31:22;101095.72;;;17.74;60.96
58761;BME280;44529;47.464;19.014;2022-10-16T10:34:51;101097.22;;;17.84;61.08
58761;BME280;44529;47.464;19.014;2022-10-16T10:38:16;101095.63;;;17.83;59.34
58761;BME280;44529;47.464;19.014;2022-10-16T10:49:07;101091.09;;;18.11;59.23
58761;BME280;44529;47.464;19.014;2022-10-16T10:52:34;101088.81;;;18.13;59.32
58761;BME280;44529;47.464;19.014;2022-10-16T10:56:11;101086.28;;;18.21;60.02
58761;BME280;44529;47.464;19.014;2022-10-16T11:02:41;101097.47;;;18.40;56.31
58761;BME280;44529;47.464;19.014;2022-10-16T11:05:45;101091.06;;;18.48;56.31
58761;BME280;44529;47.464;19.014;2022-10-16T11:12:42;101084.34;;;18.70;57.25
58761;BME280;44529;47.464;19.014;2022-10-16T11:15:48;101084.69;;;18.81;56.91
58761;BME280;44529;47.464;19.014;2022-10-16T11:22:01;101086.34;;;18.85;56.93
58761;BME280;44529;47.464;19.014;2022-10-16T11:25:13;101077.22;;;18.93;56.33
58761;BME280;44529;47.464;19.014;2022-10-16T11:28:20;101076.97;;;18.86;56.27
58761;BME280;44529;47.464;19.014;2022-10-16T11:31:42;101081.88;;;18.93;55.34
58761;BME280;44529;47.464;19.014;2022-10-16T11:34:53;101076.34;;;19.05;56.01
58761;BME280;44529;47.464;19.014;2022-10-16T11:37:58;101078.84;;;19.10;54.17
58761;BME280;44529;47.464;19.014;2022-10-16T11:48:07;101066.50;;;19.16;53.20
58761;BME280;44529;47.464;19.014;2022-10-16T11:54:53;101065.84;;;19.35;53.89
58761;BME280;44529;47.464;19.014;2022-10-16T11:58:03;101068.94;;;19.49;53.82
58761;BME280;44529;47.464;19.014;2022-10-16T12:04:26;101061.84;;;19.61;54.98
58761;BME280;44529;47.464;19.014;2022-10-16T12:07:38;101067.69;;;19.59;51.91
58761;BME280;44529;47.464;19.014;2022-10-16T12:10:45;101062.75;;;19.65;51.23
58761;BME280;44529;47.464;19.014;2022-10-16T12:13:48;101061.28;;;19.55;50.75
58761;BME280;44529;47.464;19.014;2022-10-16T12:20:29;101052.69;;;19.57;51.83
58761;BME280;44529;47.464;19.014;2022-10-16T12:23:37;101045.25;;;19.57;51.49
58761;BME280;44529;47.464;19.014;2022-10-16T12:26:44;101040.00;;;19.64;50.96
58761;BME280;44529;47.464;19.014;2022-10-16T12:29:55;101044.88;;;19.71;51.36
58761;BME280;44529;47.464;19.014;2022-10-16T12:33:04;101039.72;;;19.69;52.39
58761;BME280;44529;47.464;19.014;2022-10-16T12:36:14;101042.56;;;19.73;52.41
58761;BME280;44529;47.464;19.014;2022-10-16T12:39:27;101041.03;;;19.75;53.79
58761;BME280;44529;47.464;19.014;2022-10-16T12:45:33;101044.50;;;19.72;51.96
58761;BME280;44529;47.464;19.014;2022-10-16T12:48:38;101045.84;;;19.79;54.95
58761;BME280;44529;47.464;19.014;2022-10-16T12:51:56;101041.22;;;19.83;54.78
58761;BME280;44529;47.464;19.014;2022-10-16T12:55:00;101045.72;;;19.75;53.27
58761;BME280;44529;47.464;19.014;2022-10-16T13:05:21;101052.00;;;19.75;50.94
58761;BME280;44529;47.464;19.014;2022-10-16T13:18:19;101062.00;;;20.15;50.64
58761;BME280;44529;47.464;19.014;2022-10-16T13:28:03;101050.94;;;19.96;53.04
58761;BME280;44529;47.464;19.014;2022-10-16T13:31:14;101063.28;;;19.86;52.93
58761;BME280;44529;47.464;19.014;2022-10-16T13:34:21;101053.81;;;19.84;52.51
58761;BME280;44529;47.464;19.014;2022-10-16T13:37:24;101062.31;;;19.79;50.97
58761;BME280;44529;47.464;19.014;2022-10-16T13:40:27;101061.50;;;19.78;52.44
58761;BME280;44529;47.464;19.014;2022-10-16T13:43:38;101062.31;;;19.79;52.16
58761;BME280;44529;47.464;19.014;2022-10-16T13:46:41;101058.75;;;19.78;51.79
58761;BME280;44529;47.464;19.014;2022-10-16T13:49:43;101064.25;;;19.78;52.08
58761;BME280;44529;47.464;19.014;2022-10-16T13:52:46;101056.34;;;19.77;54.26
58761;BME280;44529;47.464;19.014;2022-10-16T13:55:48;101061.50;;;19.78;51.97
58761;BME280;44529;47.464;19.014;2022-10-16T13:59:02;101061.56;;;19.82;51.46
58761;BME280;44529;47.464;19.014;2022-10-16T14:02:20;101069.28;;;19.76;54.05
58761;BME280;44529;47.464;19.014;2022-10-16T14:05:24;101066.47;;;19.72;53.81
58761;BME280;44529;47.464;19.014;2022-10-16T14:08:27;101066.72;;;19.67;51.46
58761;BME280;44529;47.464;19.014;2022-10-16T14:11:30;101077.78;;;19.71;51.43
58761;BME280;44529;47.464;19.014;2022-10-16T14:14:54;101073.44;;;19.70;51.49
58761;BME280;44529;47.464;19.014;2022-10-16T14:17:57;101072.62;;;19.69;51.91
58761;BME280;44529;47.464;19.014;2022-10-16T14:21:06;101072.56;;;19.66;51.95
58761;BME280;44529;47.464;19.014;2022-10-16T14:24:13;101070.63;;;19.66;51.70
58761;BME280;44529;47.464;19.014;2022-10-16T14:27:41;101064.31;;;19.66;52.50
58761;BME280;44529;47.464;19.014;2022-10-16T14:30:54;101070.19;;;19.64;53.32
58761;BME280;44529;47.464;19.014;2022-10-16T14:33:57;101071.31;;;19.63;51.50
58761;BME280;44529;47.464;19.014;2022-10-16T14:37:14;101074.63;;;19.57;52.69
58761;BME280;44529;47.464;19.014;2022-10-16T14:40:34;101069.75;;;19.50;52.59
58761;BME280;44529;47.464;19.014;2022-10-16T14:43:39;101064.63;;;19.48;53.89
58761;BME280;44529;47.464;19.014;2022-10-16T14:46:43;101073.03;;;19.40;54.16
58761;BME280;44529;47.464;19.014;2022-10-16T14:49:46;101080.78;;;19.38;53.80
58761;BME280;44529;47.464;19.014;2022-10-16T14:52:48;101076.69;;;19.32;54.36
58761;BME280;44529;47.464;19.014;2022-10-16T14:55:51;101076.06;;;19.23;54.71
58761;BME280;44529;47.464;19.014;2022-10-16T14:58:55;101085.00;;;19.19;54.78
58761;BME280;44529;47.464;19.014;2022-10-16T15:01:57;101072.34;;;19.15;55.28
58761;BME280;44529;47.464;19.014;2022-10-16T15:05:16;101076.03;;;19.07;56.75
58761;BME280;44529;47.464;19.014;2022-10-16T15:08:19;101070.31;;;19.00;56.60
58761;BME280;44529;47.464;19.014;2022-10-16T15:11:21;101067.06;;;18.94;56.39
58761;BME280;44529;47.464;19.014;2022-10-16T15:14:24;101067.66;;;18.87;56.55
58761;BME280;44529;47.464;19.014;2022-10-16T15:17:26;101082.62;;;18.78;59.19
58761;BME280;44529;47.464;19.014;2022-10-16T15:20:32;101082.84;;;18.73;59.24
58761;BME280;44529;47.464;19.014;2022-10-16T15:23:35;101091.53;;;18.62;60.47
58761;BME280;44529;47.464;19.014;2022-10-16T15:26:38;101102.59;;;18.54;59.60
58761;BME280;44529;47.464;19.014;2022-10-16T15:29:40;101108.78;;;18.51;60.50
58761;BME280;44529;47.464;19.014;2022-10-16T15:32:43;101104.66;;;18.45;60.42
58761;BME280;44529;47.464;19.014;2022-10-16T15:35:52;101100.78;;;18.33;59.82
58761;BME280;44529;47.464;19.014;2022-10-16T15:38:55;101104.78;;;18.24;59.84
58761;BME280;44529;47.464;19.014;2022-10-16T15:41:57;101107.19;;;18.13;62.27
58761;BME280;44529;47.464;19.014;2022-10-16T15:44:59;101116.31;;;18.05;61.93
58761;BME280;44529;47.464;19.014;2022-10-16T15:48:02;101106.00;;;17.90;62.48
58761;BME280;44529;47.464;19.014;2022-10-16T15:51:06;101112.94;;;17.75;62.96
58761;BME280;44529;47.464;19.014;2022-10-16T15:54:09;101110.28;;;17.66;63.17
58761;BME280;44529;47.464;19.014;2022-10-16T15:57:11;101110.34;;;17.57;63.32
58761;BME280;44529;47.464;19.014;2022-10-16T16:00:18;101103.81;;;17.50;63.73
58761;BME280;44529;47.464;19.014;2022-10-16T16:03:23;101107.44;;;17.42;63.90
58761;BME280;44529;47.464;19.014;2022-10-16T16:06:26;101101.28;;;17.32;63.82
58761;BME280;44529;47.464;19.014;2022-10-16T16:09:29;101112.94;;;17.21;64.27
58761;BME280;44529;47.464;19.014;2022-10-16T16:12:31;101123.81;;;17.09;65.74
58761;BME280;44529;47.464;19.014;2022-10-16T16:15:34;101131.59;;;16.98;65.79
58761;BME280;44529;47.464;19.014;2022-10-16T16:18:36;101130.19;;;16.92;67.16
58761;BME280;44529;47.464;19.014;2022-10-16T16:21:39;101142.13;;;16.87;67.56
58761;BME280;44529;47.464;19.014;2022-10-16T16:24:41;101147.31;;;16.80;68.87
58761;BME280;44529;47.464;19.014;2022-10-16T16:27:44;101154.09;;;16.74;69.33
58761;BME280;44529;47.464;19.014;2022-10-16T16:30:50;101150.44;;;16.70;69.19
58761;BME280;44529;47.464;19.014;2022-10-16T16:33:53;101152.88;;;16.63;69.33
58761;BME280;44529;47.464;19.014;2022-10-16T16:36:56;101161.88;;;16.55;69.11
58761;BME280;44529;47.464;19.014;2022-10-16T16:39:58;101173.13;;;16.53;69.01
58761;BME280;44529;47.464;19.014;2022-10-16T16:43:01;101179.00;;;16.43;70.90
58761;BME280;44529;47.464;19.014;2022-10-16T16:46:03;101175.94;;;16.36;70.96
58761;BME280;44529;47.464;19.014;2022-10-16T16:49:06;101179.84;;;16.26;72.14
58761;BME280;44529;47.464;19.014;2022-10-16T16:52:09;101182.28;;;16.19;71.77
58761;BME280;44529;47.464;19.014;2022-10-16T16:55:11;101181.97;;;16.12;71.74
58761;BME280;44529;47.464;19.014;2022-10-16T16:58:13;101181.19;;;16.03;71.57
58761;BME280;44529;47.464;19.014;2022-10-16T17:01:15;101186.00;;;15.97;72.00
58761;BME280;44529;47.464;19.014;2022-10-16T17:04:23;101195.81;;;15.89;71.98
58761;BME280;44529;47.464;19.014;2022-10-16T17:07:25;101201.12;;;15.77;75.62
58761;BME280;44529;47.464;19.014;2022-10-16T17:10:29;101208.22;;;15.69;75.84
58761;BME280;44529;47.464;19.014;2022-10-16T17:13:34;101217.19;;;15.70;76.04